Time;durP1;ratioP1;P1;durP2;ratioP2;P2;SDS_P1;SDS_P2;PMS_P1;PMS_P2;Temp;Humidity;BMP_temperature;BMP_pressure;BME280_temperature;BME280_humidity;BME280_pressure;Samples;Min_cycle;Max_cycle;Signal;HPM_P1;HPM_P2
2022/10/26 00:01:27;;;;;;;2.90;1.65;;;;;;;11.82;66.66;93117.59;2051564;69;20140;-75
2022/10/26 00:03:55;;;;;;;3.47;1.80;;;;;;;11.76;66.72;93114.41;2051539;69;20625;-75
2022/10/26 00:06:23;;;;;;;4.72;1.90;;;;;;;11.71;66.75;93113.41;2050813;70;20170;-76
2022/10/26 00:08:50;;;;;;;2.50;1.70;;;;;;;11.85;66.50;93116.41;2052027;69;20153;-75
2022/10/26 00:11:16;;;;;;;2.70;1.67;;;;;;;11.79;67.34;93124.47;2051839;69;20242;-75
2022/10/26 00:13:43;;;;;;;4.50;1.95;;;;;;;11.81;67.74;93108.41;2051426;69;20146;-75
2022/10/26 00:16:13;;;;;;;3.13;1.77;;;;;;;11.86;67.99;93104.50;2051395;69;20229;-74
2022/10/26 00:18:39;;;;;;;5.55;2.03;;;;;;;11.78;69.05;93104.00;2051202;69;20160;-76
2022/10/26 00:21:06;;;;;;;3.42;1.70;;;;;;;11.78;68.08;93111.72;2051129;70;20142;-75
2022/10/26 00:23:32;;;;;;;8.05;2.20;;;;;;;11.81;67.72;93111.22;2051675;69;20138;-75
2022/10/26 00:25:59;;;;;;;5.45;1.70;;;;;;;11.92;66.67;93110.56;2051660;69;20150;-75
2022/10/26 00:28:25;;;;;;;3.75;1.50;;;;;;;11.95;67.17;93103.66;2051589;70;20237;-76
2022/10/26 00:30:50;;;;;;;3.53;1.35;;;;;;;11.95;67.26;93114.94;2052117;69;20173;-74
2022/10/26 00:33:16;;;;;;;3.42;1.92;;;;;;;11.51;71.10;93115.69;2048558;70;20229;-75
2022/10/26 00:35:42;;;;;;;7.32;2.03;;;;;;;11.47;70.94;93123.16;2051267;69;20146;-75
2022/10/26 00:38:08;;;;;;;3.15;1.80;;;;;;;11.73;69.13;93130.47;2051273;70;20495;-75
2022/10/26 00:40:33;;;;;;;3.45;1.60;;;;;;;11.79;68.59;93139.31;2051369;70;20610;-75
2022/10/26 00:43:00;;;;;;;3.00;1.83;;;;;;;11.83;68.67;93136.03;2051263;69;20166;-75
2022/10/26 00:45:29;;;;;;;4.88;1.80;;;;;;;11.86;68.11;93143.28;2051256;70;20594;-75
2022/10/26 00:48:06;;;;;;;4.05;1.80;;;;;;;11.86;67.97;93132.00;2051385;69;20189;-75
2022/10/26 00:50:35;;;;;;;5.28;2.28;;;;;;;11.69;69.82;93135.84;2051491;70;20138;-74
2022/10/26 00:53:03;;;;;;;5.80;2.08;;;;;;;11.80;68.43;93140.06;2051438;69;20540;-74
2022/10/26 00:55:33;;;;;;;4.90;2.00;;;;;;;11.83;68.72;93138.88;2051499;70;20150;-75
2022/10/26 00:58:01;;;;;;;4.93;2.00;;;;;;;11.81;68.53;93130.97;2051587;69;20147;-75
2022/10/26 01:00:26;;;;;;;7.82;2.35;;;;;;;11.85;68.10;93131.25;2050842;70;20151;-75
2022/10/26 01:02:56;;;;;;;3.75;2.35;;;;;;;11.83;68.11;93127.59;2051520;70;20495;-75
2022/10/26 01:05:24;;;;;;;5.00;2.22;;;;;;;11.79;67.19;93128.03;2051466;70;20614;-76
2022/10/26 01:07:50;;;;;;;5.35;2.13;;;;;;;11.71;67.89;93139.53;2051056;70;20145;-75
2022/10/26 01:10:17;;;;;;;3.85;2.05;;;;;;;11.73;68.31;93147.41;2051937;70;20158;-75
2022/10/26 01:12:44;;;;;;;4.95;2.17;;;;;;;11.78;67.52;93151.94;2051876;70;20653;-75
2022/10/26 01:15:10;;;;;;;4.05;2.00;;;;;;;11.75;68.54;93149.59;2051695;69;20153;-75
2022/10/26 01:18:08;;;;;;;5.70;1.55;;;;;;;11.67;69.82;93142.09;2051439;70;20614;-76
2022/10/26 01:21:01;;;;;;;7.38;1.88;;;;;;;11.61;69.58;93132.50;2049632;70;20154;-75
2022/10/26 01:23:33;;;;;;;;;;;;;;;11.52;70.45;93127.72;2051567;70;20190;-76
2022/10/26 01:26:24;;;;;;;2.90;1.77;;;;;;;11.67;70.12;93133.63;2050864;70;20073;-74
2022/10/26 01:28:53;;;;;;;3.03;1.60;;;;;;;11.83;66.90;93136.78;2051686;69;20154;-75
2022/10/26 01:31:30;;;;;;;3.10;1.63;;;;;;;11.89;67.36;93137.16;2051863;70;20252;-75
2022/10/26 01:34:12;;;;;;;3.80;1.95;;;;;;;11.74;67.91;93145.31;2051312;69;20138;-76
2022/10/26 01:37:01;;;;;;;3.47;1.40;;;;;;;11.68;68.83;93131.53;2051453;69;20190;-76
2022/10/26 01:39:34;;;;;;;5.45;1.50;;;;;;;11.91;68.12;93140.13;2051599;70;20135;-75
2022/10/26 01:42:04;;;;;;;2.45;1.10;;;;;;;11.97;66.77;93131.28;2051387;70;20154;-76
2022/10/26 01:44:45;;;;;;;2.38;1.30;;;;;;;11.89;68.21;93125.13;2051478;70;20142;-75
2022/10/26 01:47:17;;;;;;;5.22;1.63;;;;;;;11.98;67.63;93138.41;2051313;69;20150;-75
2022/10/26 01:49:48;;;;;;;2.80;1.77;;;;;;;11.47;71.09;93128.78;2051570;69;20157;-75
2022/10/26 01:52:14;;;;;;;3.88;1.85;;;;;;;11.76;69.29;93137.69;2050689;69;20200;-75
2022/10/26 01:54:39;;;;;;;2.72;1.60;;;;;;;11.83;69.11;93150.16;2051447;69;20241;-76
2022/10/26 01:57:10;;;;;;;2.75;1.80;;;;;;;11.87;68.28;93148.31;2050750;70;20546;-76
2022/10/26 01:59:57;;;;;;;3.45;1.70;;;;;;;11.89;68.65;93153.34;2051206;69;20157;-76
2022/10/26 02:02:44;;;;;;;3.53;1.77;;;;;;;11.86;68.25;93166.56;2051210;69;20149;-75
2022/10/26 02:05:23;;;;;;;3.75;1.80;;;;;;;11.58;71.71;93162.66;2051156;69;20150;-75
2022/10/26 02:08:07;;;;;;;4.32;1.77;;;;;;;11.83;68.97;93147.34;2050912;70;20158;-74
2022/10/26 02:10:57;;;;;;;6.22;1.70;;;;;;;11.82;69.85;93131.69;2051352;69;20142;-74
2022/10/26 02:13:42;;;;;;;4.85;1.63;;;;;;;11.92;67.20;93113.38;2051611;69;20157;-75
2022/10/26 02:16:07;;;;;;;4.07;1.70;;;;;;;11.93;68.41;93111.28;2051399;69;20158;-75
2022/10/26 02:18:44;;;;;;;4.80;1.58;;;;;;;12.00;67.88;93095.47;2051194;69;20141;-74
2022/10/26 02:21:17;;;;;;;3.92;1.50;;;;;;;11.87;68.45;93091.16;2051284;69;20185;-74
2022/10/26 02:23:46;;;;;;;4.38;1.77;;;;;;;11.89;67.94;93099.75;2050892;70;20155;-74
2022/10/26 02:26:15;;;;;;;2.47;1.50;;;;;;;11.86;68.82;93092.50;2050907;70;20200;-76
2022/10/26 02:28:46;;;;;;;5.88;1.40;;;;;;;11.89;68.72;93091.28;2051387;70;20577;-75
2022/10/26 02:31:13;;;;;;;4.68;1.30;;;;;;;12.00;67.65;93095.47;2051387;69;20269;-75
2022/10/26 02:33:44;;;;;;;3.47;1.45;;;;;;;12.02;66.78;93096.34;2051240;69;20684;-74
2022/10/26 02:36:13;;;;;;;2.45;1.30;;;;;;;12.04;66.60;93085.16;2051252;69;20213;-75
2022/10/26 02:38:40;;;;;;;3.63;1.45;;;;;;;12.02;66.51;93076.56;2051256;69;20146;-75
2022/10/26 02:41:07;;;;;;;2.78;1.33;;;;;;;11.94;66.84;93082.44;2051135;69;20294;-75
2022/10/26 02:43:40;;;;;;;1.67;1.13;;;;;;;11.88;67.32;93084.16;2051400;69;20245;-75
2022/10/26 02:46:10;;;;;;;3.20;1.40;;;;;;;11.89;67.74;93077.91;2051322;70;20170;-75
2022/10/26 02:48:36;;;;;;;7.18;1.27;;;;;;;11.86;68.29;93081.22;2051162;69;20168;-75
2022/10/26 02:51:15;;;;;;;1.85;1.10;;;;;;;11.94;67.51;93071.16;2051373;69;20142;-75
2022/10/26 02:54:13;;;;;;;3.90;1.10;;;;;;;11.87;68.72;93079.88;2051409;69;20138;-75
2022/10/26 02:56:53;;;;;;;2.33;1.20;;;;;;;11.98;67.11;93076.31;2047809;70;20194;-76
2022/10/26 02:59:23;;;;;;;5.05;1.10;;;;;;;11.97;66.68;93082.59;2051415;70;20610;-75
2022/10/26 03:01:51;;;;;;;2.90;1.20;;;;;;;11.97;67.44;93076.94;2051500;69;20150;-75
2022/10/26 03:04:16;;;;;;;2.15;1.30;;;;;;;11.91;67.42;93069.59;2051385;70;20233;-75
2022/10/26 03:06:51;;;;;;;1.80;1.05;;;;;;;11.92;67.45;93059.78;2051623;69;20146;-76
2022/10/26 03:09:16;;;;;;;5.10;1.17;;;;;;;11.86;68.55;93064.28;2051430;69;20138;-76
2022/10/26 03:11:42;;;;;;;3.33;1.30;;;;;;;11.51;71.22;93081.13;2051260;69;20169;-76
2022/10/26 03:14:07;;;;;;;3.70;1.30;;;;;;;11.58;69.88;93080.16;2047659;70;20153;-76
2022/10/26 03:16:33;;;;;;;3.65;1.80;;;;;;;11.74;69.14;93092.47;2051182;69;20182;-76
2022/10/26 03:18:59;;;;;;;3.92;2.10;;;;;;;11.73;68.90;93090.22;2051185;69;20186;-76
2022/10/26 03:21:27;;;;;;;5.63;2.97;;;;;;;11.65;69.35;93102.50;2051178;69;20238;-75
2022/10/26 03:23:54;;;;;;;4.90;2.28;;;;;;;11.76;68.73;93100.31;2050978;70;20161;-76
2022/10/26 03:26:19;;;;;;;5.28;2.08;;;;;;;11.72;69.95;93097.97;2051145;70;20142;-75
2022/10/26 03:28:45;;;;;;;3.38;2.10;;;;;;;11.40;71.41;93110.72;2051204;69;20150;-75
2022/10/26 03:31:11;;;;;;;4.63;2.20;;;;;;;11.64;69.98;93120.75;2051356;70;20169;-75
2022/10/26 03:33:36;;;;;;;5.28;2.10;;;;;;;11.66;69.48;93115.25;2051141;70;20181;-75
2022/10/26 03:36:02;;;;;;;3.85;1.80;;;;;;;11.74;68.16;93114.28;2051186;70;20151;-75
2022/10/26 03:38:28;;;;;;;3.53;1.70;;;;;;;11.78;68.44;93115.28;2051244;70;20233;-74
2022/10/26 03:40:54;;;;;;;5.85;2.97;;;;;;;11.73;69.32;93112.78;2051337;70;20166;-75
2022/10/26 03:43:20;;;;;;;3.80;2.72;;;;;;;11.70;68.96;93114.75;2053636;70;20158;-75
2022/10/26 03:45:46;;;;;;;5.10;2.40;;;;;;;11.72;69.50;93114.88;2054832;69;20475;-75
2022/10/26 03:48:12;;;;;;;3.60;2.20;;;;;;;11.75;70.01;93122.13;2054014;69;20173;-75
2022/10/26 03:50:38;;;;;;;8.60;2.55;;;;;;;11.73;69.23;93133.28;2054414;69;20260;-74
2022/10/26 03:53:03;;;;;;;5.72;1.90;;;;;;;11.72;69.75;93120.53;2054693;69;20340;-75
2022/10/26 03:55:29;;;;;;;4.72;2.00;;;;;;;11.80;67.60;93126.69;2054749;69;20265;-74
2022/10/26 03:57:54;;;;;;;6.43;3.88;;;;;;;11.63;70.05;93132.63;2054474;69;20216;-75
2022/10/26 04:00:20;;;;;;;2.83;2.00;;;;;;;11.55;71.16;93127.22;2054358;69;20217;-75
2022/10/26 04:02:53;;;;;;;5.00;2.50;;;;;;;11.48;71.52;93122.53;2053777;69;20290;-75
2022/10/26 04:05:20;;;;;;;6.15;2.83;;;;;;;11.53;71.08;93124.25;2054613;69;20149;-75
2022/10/26 04:07:58;;;;;;;8.38;5.05;;;;;;;11.53;70.72;93126.34;2054544;69;20150;-76
2022/10/26 04:10:25;;;;;;;7.93;3.60;;;;;;;11.55;70.95;93141.34;2054872;69;20150;-76
2022/10/26 04:12:52;;;;;;;6.57;2.42;;;;;;;11.59;69.20;93129.56;2055001;69;20150;-76
2022/10/26 04:15:18;;;;;;;4.95;2.65;;;;;;;11.57;69.34;93130.16;2054792;69;20593;-76
2022/10/26 04:17:44;;;;;;;6.53;3.35;;;;;;;11.55;69.76;93127.22;2054783;69;20220;-76
2022/10/26 04:20:10;;;;;;;6.75;3.80;;;;;;;11.53;70.09;93141.19;2054793;69;20537;-76
2022/10/26 04:22:36;;;;;;;6.60;3.42;;;;;;;11.55;69.65;93141.34;2054684;69;20142;-75
2022/10/26 04:25:03;;;;;;;5.85;3.97;;;;;;;11.56;69.34;93147.69;2054773;69;20158;-76
2022/10/26 04:27:29;;;;;;;8.57;5.55;;;;;;;11.45;71.11;93163.22;2054826;69;20574;-75
2022/10/26 04:29:54;;;;;;;9.63;5.78;;;;;;;11.60;69.38;93159.25;2054730;69;20149;-76
2022/10/26 04:32:20;;;;;;;6.03;4.38;;;;;;;11.64;69.82;93171.53;2054807;69;20150;-75
2022/10/26 04:34:45;;;;;;;6.40;3.95;;;;;;;11.60;69.46;93159.97;2054937;69;20317;-76
2022/10/26 04:37:11;;;;;;;7.40;6.10;;;;;;;11.59;70.39;93143.66;2054672;69;20725;-76
2022/10/26 04:39:36;;;;;;;5.93;3.35;;;;;;;11.27;71.74;93140.25;2054732;69;20142;-76
2022/10/26 04:42:02;;;;;;;6.05;2.90;;;;;;;11.45;70.44;93141.41;2054824;69;20150;-75
2022/10/26 04:44:28;;;;;;;5.43;2.50;;;;;;;11.55;69.48;93127.22;2054721;69;20184;-76
2022/10/26 04:46:53;;;;;;;4.82;2.67;;;;;;;11.58;69.46;93134.47;2054600;69;20174;-75
2022/10/26 04:49:22;;;;;;;4.60;1.60;;;;;;;11.30;71.32;93124.19;2054599;69;20700;-76
2022/10/26 04:51:47;;;;;;;2.03;1.50;;;;;;;11.49;70.04;93126.81;2054625;69;20173;-75
2022/10/26 04:54:13;;;;;;;4.10;1.55;;;;;;;11.62;69.46;93129.09;2054967;69;20130;-75
2022/10/26 04:56:39;;;;;;;6.47;2.17;;;;;;;11.37;71.45;93145.78;2054703;69;20146;-76
2022/10/26 04:59:05;;;;;;;4.68;1.70;;;;;;;11.52;70.40;93138.97;2055378;69;20594;-75
2022/10/26 05:01:31;;;;;;;5.70;2.85;;;;;;;11.61;69.79;93140.97;2055483;69;20162;-75
2022/10/26 05:03:56;;;;;;;6.38;1.70;;;;;;;11.58;70.23;93145.72;2055300;69;20150;-76
2022/10/26 05:06:22;;;;;;;1.83;1.30;;;;;;;11.59;69.91;93163.38;2055132;69;20257;-76
2022/10/26 05:08:48;;;;;;;3.38;1.30;;;;;;;11.58;70.24;93167.56;2055247;69;20178;-76
2022/10/26 05:11:14;;;;;;;4.63;2.03;;;;;;;11.74;70.02;93165.06;2055207;69;20672;-76
2022/10/26 05:13:40;;;;;;;8.35;1.52;;;;;;;11.83;67.78;93159.34;2055213;69;20134;-76
2022/10/26 05:16:06;;;;;;;4.40;1.45;;;;;;;11.83;67.55;93159.34;2055212;69;20141;-76
2022/10/26 05:18:31;;;;;;;3.78;2.00;;;;;;;11.56;69.65;93156.16;2055170;69;20158;-76
2022/10/26 05:20:57;;;;;;;4.53;1.80;;;;;;;11.72;68.46;93157.19;2055186;69;20231;-75
2022/10/26 05:23:23;;;;;;;2.22;1.77;;;;;;;11.77;68.57;93158.19;2055220;69;20153;-75
2022/10/26 05:25:49;;;;;;;4.82;1.95;;;;;;;11.78;68.58;93151.22;2055348;69;20518;-75
2022/10/26 05:28:15;;;;;;;3.97;2.03;;;;;;;11.76;68.58;93157.44;2055148;69;20205;-76
2022/10/26 05:30:43;;;;;;;3.42;1.90;;;;;;;11.74;68.69;93162.97;2055210;69;20602;-76
2022/10/26 05:33:13;;;;;;;6.80;2.25;;;;;;;11.77;68.75;93184.31;2055191;69;20216;-76
2022/10/26 05:35:39;;;;;;;5.45;2.40;;;;;;;11.81;67.43;93195.13;2055032;69;20178;-75
2022/10/26 05:38:22;;;;;;;4.35;2.88;;;;;;;11.78;67.55;93199.16;2055134;69;20138;-76
2022/10/26 05:40:53;;;;;;;6.35;4.22;;;;;;;11.75;69.14;93201.09;2055367;69;20205;-76
2022/10/26 05:43:20;;;;;;;4.93;3.83;;;;;;;11.70;70.08;93208.56;2055180;69;20606;-73
2022/10/26 05:45:48;;;;;;;10.10;4.15;;;;;;;11.78;69.39;93210.44;2055106;69;20510;-74
2022/10/26 05:48:13;;;;;;;4.57;3.15;;;;;;;11.82;68.72;93216.34;2055126;69;20153;-74
2022/10/26 05:50:39;;;;;;;6.43;2.60;;;;;;;11.77;68.79;93237.16;2055147;69;20150;-74
2022/10/26 05:53:05;;;;;;;7.47;1.73;;;;;;;11.84;67.74;93253.19;2055108;69;20609;-74
2022/10/26 05:55:31;;;;;;;4.90;3.40;;;;;;;11.56;71.21;93260.50;2055231;69;20142;-75
2022/10/26 05:57:57;;;;;;;6.28;4.13;;;;;;;11.75;70.28;93263.16;2054548;69;20162;-74
2022/10/26 06:00:25;;;;;;;5.22;3.50;;;;;;;11.79;69.64;93276.78;2054578;69;20145;-75
2022/10/26 06:03:24;;;;;;;7.57;3.33;;;;;;;11.78;69.83;93283.78;2055090;69;20320;-75
2022/10/26 06:05:52;;;;;;;9.68;3.30;;;;;;;11.85;68.85;93286.41;2054822;69;20157;-75
2022/10/26 06:08:18;;;;;;;5.40;2.67;;;;;;;11.87;68.53;93297.09;2055091;69;20146;-76
2022/10/26 06:10:45;;;;;;;6.18;2.50;;;;;;;11.89;67.91;93300.78;2055066;69;20138;-75
2022/10/26 06:13:10;;;;;;;7.40;1.98;;;;;;;11.91;69.34;93300.19;2055127;69;20180;-76
2022/10/26 06:15:49;;;;;;;2.78;1.90;;;;;;;11.91;70.39;93303.75;2055248;69;20541;-75
2022/10/26 06:18:39;;;;;;;8.20;2.15;;;;;;;11.93;70.30;93303.88;2055193;69;20126;-75
2022/10/26 06:21:37;;;;;;;4.85;2.75;;;;;;;11.70;72.84;93306.56;2054997;69;20205;-75
2022/10/26 06:24:33;;;;;;;7.88;3.65;;;;;;;11.79;71.55;93310.66;2054968;70;20265;-75
2022/10/26 06:27:18;;;;;;;4.57;2.92;;;;;;;11.90;69.26;93319.19;2055152;69;20684;-77
2022/10/26 06:29:54;;;;;;;12.10;7.03;;;;;;;11.71;71.83;93319.31;2055127;69;20248;-76
2022/10/26 06:32:22;;;;;;;15.35;10.90;;;;;;;11.39;75.62;93334.78;2055193;69;20149;-75
2022/10/26 06:34:50;;;;;;;13.32;6.13;;;;;;;11.20;77.49;93330.72;2055194;69;20188;-75
2022/10/26 06:37:17;;;;;;;8.20;3.35;;;;;;;11.39;75.56;93335.53;2054966;69;20244;-76
2022/10/26 06:39:46;;;;;;;6.22;3.13;;;;;;;11.69;75.28;93333.28;2055012;69;20150;-75
2022/10/26 06:42:12;;;;;;;6.95;2.50;;;;;;;11.81;71.98;93331.25;2055008;69;20281;-75
2022/10/26 06:44:38;;;;;;;7.30;3.13;;;;;;;11.70;74.06;93332.66;2055040;69;20158;-75
2022/10/26 06:47:15;;;;;;;7.00;2.90;;;;;;;11.80;73.27;93334.69;2054980;69;20154;-75
2022/10/26 06:50:19;;;;;;;4.70;2.22;;;;;;;11.86;71.56;93335.09;2055466;69;20153;-75
2022/10/26 06:52:56;;;;;;;8.07;2.45;;;;;;;11.79;75.42;93328.31;2055054;69;20146;-75
2022/10/26 06:55:22;;;;;;;6.03;2.90;;;;;;;11.61;77.02;93321.47;2055183;69;20197;-75
2022/10/26 06:57:48;;;;;;;4.32;2.75;;;;;;;11.60;75.44;93314.34;2054903;69;20522;-75
2022/10/26 07:00:24;;;;;;;8.43;2.92;;;;;;;11.71;75.43;93302.38;2055015;69;20145;-75
2022/10/26 07:02:50;;;;;;;6.82;2.80;;;;;;;11.71;74.97;93303.13;2054892;69;20137;-74
2022/10/26 07:05:15;;;;;;;6.57;2.70;;;;;;;11.77;74.68;93307.69;2054810;69;20252;-75
2022/10/26 07:07:44;;;;;;;4.30;2.30;;;;;;;12.01;72.49;93317.78;2054810;69;20153;-75
2022/10/26 07:10:10;;;;;;;6.07;2.08;;;;;;;11.99;73.92;93328.19;2055018;69;20146;-75
2022/10/26 07:12:37;;;;;;;3.30;2.28;;;;;;;11.75;74.79;93347.78;2054978;69;20146;-75
2022/10/26 07:15:04;;;;;;;5.47;2.28;;;;;;;11.97;75.50;93361.94;2055087;69;20622;-75
2022/10/26 07:17:29;;;;;;;5.38;2.80;;;;;;;12.07;72.64;93368.25;2054984;69;20249;-74
2022/10/26 07:19:55;;;;;;;6.20;3.97;;;;;;;12.13;73.27;93379.91;2055073;69;20575;-74
2022/10/26 07:22:21;;;;;;;6.75;3.05;;;;;;;12.23;72.51;93374.19;2054983;69;20158;-74
2022/10/26 07:24:49;;;;;;;6.32;2.90;;;;;;;12.24;73.45;93379.25;2055136;69;20220;-75
2022/10/26 07:27:16;;;;;;;6.05;2.90;;;;;;;12.39;70.84;93386.56;2054984;69;20617;-74
2022/10/26 07:29:42;;;;;;;10.73;4.43;;;;;;;12.33;73.31;93389.72;2054965;69;20158;-74
2022/10/26 07:32:07;;;;;;;6.00;4.03;;;;;;;12.34;71.98;93408.13;2055026;69;20218;-74
2022/10/26 07:34:33;;;;;;;8.70;3.58;;;;;;;12.35;72.30;93420.16;2054970;69;20572;-75
2022/10/26 07:36:59;;;;;;;7.22;3.28;;;;;;;12.39;71.86;93412.69;2054986;69;20188;-75
2022/10/26 07:39:25;;;;;;;5.85;2.53;;;;;;;12.41;71.36;93426.94;2054945;69;20177;-75
2022/10/26 07:41:51;;;;;;;7.43;2.80;;;;;;;12.45;71.65;93438.50;2054989;69;20158;-74
2022/10/26 07:44:17;;;;;;;7.45;4.15;;;;;;;12.37;72.25;93432.34;2055058;69;20495;-75
2022/10/26 07:46:42;;;;;;;5.32;3.80;;;;;;;12.33;74.55;93434.91;2054955;69;20157;-74
2022/10/26 07:49:08;;;;;;;7.65;3.72;;;;;;;12.46;73.13;93425.88;2054858;69;20499;-74
2022/10/26 07:51:33;;;;;;;12.48;6.65;;;;;;;12.34;74.06;93416.59;2054747;69;20161;-75
2022/10/26 07:53:59;;;;;;;20.40;11.45;;;;;;;11.90;78.21;93405.91;2054893;69;20246;-75
2022/10/26 07:56:25;;;;;;;15.10;9.07;;;;;;;12.21;77.17;93398.13;2054965;69;20146;-73
2022/10/26 07:58:54;;;;;;;8.65;3.08;;;;;;;12.33;72.95;93384.09;2054752;69;20177;-74
2022/10/26 08:01:21;;;;;;;6.38;3.08;;;;;;;12.37;75.17;93372.28;2054963;69;20192;-74
2022/10/26 08:03:47;;;;;;;4.38;2.63;;;;;;;12.30;78.45;93370.44;2055014;69;20130;-74
2022/10/26 08:06:12;;;;;;;6.60;2.53;;;;;;;12.37;75.97;93370.22;2054923;69;20200;-74
2022/10/26 08:08:38;;;;;;;4.57;2.40;;;;;;;12.34;76.22;93365.06;2054621;69;20217;-74
2022/10/26 08:11:06;;;;;;;4.40;2.17;;;;;;;12.36;76.59;93377.19;2054778;69;20149;-74
2022/10/26 08:13:34;;;;;;;3.33;1.90;;;;;;;12.52;74.42;93363.41;2054922;69;20254;-75
2022/10/26 08:16:03;;;;;;;3.47;1.85;;;;;;;12.56;75.21;93377.78;2055033;69;20289;-74
2022/10/26 08:18:29;;;;;;;4.03;2.78;;;;;;;12.28;76.51;93376.69;2054823;69;20136;-75
2022/10/26 08:20:54;;;;;;;6.88;2.90;;;;;;;12.51;75.62;93384.53;2054708;70;20701;-75
2022/10/26 08:23:21;;;;;;;7.35;2.50;;;;;;;12.29;76.15;93378.16;2054801;69;20224;-75
2022/10/26 08:25:46;;;;;;;4.20;2.40;;;;;;;12.68;74.55;93377.81;2054935;69;20134;-75
2022/10/26 08:28:12;;;;;;;5.38;3.33;;;;;;;12.48;77.74;93379.34;2055116;69;20157;-75
2022/10/26 08:30:38;;;;;;;7.75;3.75;;;;;;;12.48;77.21;93385.00;2055468;69;20249;-76
2022/10/26 08:33:05;;;;;;;7.88;4.95;;;;;;;12.69;77.89;93374.41;2055359;69;20233;-75
2022/10/26 08:35:32;;;;;;;12.82;5.32;;;;;;;12.99;75.78;93386.13;2055325;69;20142;-76
2022/10/26 08:37:58;;;;;;;7.25;3.90;;;;;;;13.08;75.85;93388.13;2055279;69;20164;-75
2022/10/26 08:40:33;;;;;;;6.78;3.63;;;;;;;13.30;74.69;93393.72;2055290;69;20181;-76
2022/10/26 08:43:29;;;;;;;8.30;4.13;;;;;;;13.59;73.12;93396.91;2055226;69;20143;-76
2022/10/26 08:46:08;;;;;;;9.55;4.30;;;;;;;13.81;74.02;93393.97;2055368;69;20146;-76
2022/10/26 08:48:47;;;;;;;7.30;4.10;;;;;;;13.88;74.17;93375.97;2055236;69;20169;-76
2022/10/26 08:51:19;;;;;;;5.07;3.53;;;;;;;14.01;73.98;93368.94;2055309;69;20172;-76
2022/10/26 08:53:53;;;;;;;7.55;3.78;;;;;;;14.18;74.02;93374.22;2055391;69;20146;-75
2022/10/26 08:56:28;;;;;;;8.05;3.75;;;;;;;14.50;74.34;93375.38;2055223;69;20157;-76
2022/10/26 08:58:59;;;;;;;8.73;3.28;;;;;;;14.46;73.04;93377.94;2054765;69;20179;-76
2022/10/26 09:01:25;;;;;;;6.72;3.88;;;;;;;14.66;73.09;93373.47;2055279;69;20600;-76
2022/10/26 09:03:50;;;;;;;10.43;4.88;;;;;;;14.88;72.88;93373.94;2055433;69;20153;-76
2022/10/26 09:06:16;;;;;;;3.90;2.53;;;;;;;14.93;69.54;93372.81;2055075;69;20208;-76
2022/10/26 09:09:03;;;;;;;3.58;2.00;;;;;;;14.77;66.84;93380.44;2055282;69;20157;-75
2022/10/26 09:11:50;;;;;;;7.38;3.38;;;;;;;14.90;69.00;93367.69;2055273;69;20133;-76
2022/10/26 09:14:24;;;;;;;8.38;2.70;;;;;;;15.36;68.36;93389.34;2055349;69;20146;-76
2022/10/26 09:17:04;;;;;;;12.25;3.30;;;;;;;15.51;67.68;93388.72;2054718;69;20557;-76
2022/10/26 09:19:57;;;;;;;7.65;3.05;;;;;;;15.88;67.86;93379.31;2055268;69;20134;-76
2022/10/26 09:22:31;;;;;;;6.97;2.85;;;;;;;16.18;68.57;93371.66;2055242;69;20178;-78
2022/10/26 09:25:02;;;;;;;6.28;2.50;;;;;;;16.58;67.96;93372.19;2055392;69;20134;-77
2022/10/26 09:27:33;;;;;;;7.43;3.28;;;;;;;16.65;65.65;93379.66;2055214;69;20166;-76
2022/10/26 09:30:11;;;;;;;7.43;3.00;;;;;;;16.83;64.20;93377.00;2055164;69;20177;-76
2022/10/26 09:32:43;;;;;;;6.20;2.58;;;;;;;16.68;63.78;93371.97;2055203;69;20229;-75
2022/10/26 09:35:18;;;;;;;8.13;2.53;;;;;;;16.73;63.58;93373.66;2055534;69;20149;-76
2022/10/26 09:37:50;;;;;;;6.45;2.35;;;;;;;16.66;63.21;93375.44;2055136;69;20153;-77
2022/10/26 09:40:36;;;;;;;7.03;2.33;;;;;;;16.59;63.83;93393.56;2055215;69;20598;-75
2022/10/26 09:43:25;;;;;;;5.97;2.10;;;;;;;16.39;66.45;93409.59;2055331;69;20184;-76
2022/10/26 09:45:51;;;;;;;5.55;2.42;;;;;;;16.37;66.45;93421.59;2055120;69;20134;-76
2022/10/26 09:48:44;;;;;;;8.02;2.47;;;;;;;16.23;66.64;93410.25;2055042;69;20575;-76
2022/10/26 09:51:10;;;;;;;9.82;3.38;;;;;;;16.22;65.57;93414.47;2055046;69;20642;-75
2022/10/26 09:53:35;;;;;;;9.38;2.58;;;;;;;16.42;65.22;93411.19;2054952;69;20229;-76
2022/10/26 09:56:19;;;;;;;11.27;4.05;;;;;;;16.74;65.47;93400.72;2054946;69;20146;-75
2022/10/26 09:59:03;;;;;;;7.93;3.78;;;;;;;16.73;67.54;93385.03;2056028;69;20145;-75
2022/10/26 10:01:31;;;;;;;8.00;4.00;;;;;;;16.79;64.35;93385.31;2055323;69;20153;-78
2022/10/26 10:04:24;;;;;;;16.08;4.45;;;;;;;16.55;67.98;93375.59;2055191;69;20157;-78
2022/10/26 10:07:11;;;;;;;7.82;3.03;;;;;;;16.63;65.71;93382.41;2054683;69;20134;-77
2022/10/26 10:09:36;;;;;;;4.78;2.60;;;;;;;16.81;65.70;93393.22;2054972;69;20217;-77
2022/10/26 10:12:03;;;;;;;11.75;3.60;;;;;;;16.99;66.46;93396.94;2055047;69;20252;-77
2022/10/26 10:14:30;;;;;;;7.47;3.08;;;;;;;17.14;64.57;93384.16;2054922;69;20614;-78
2022/10/26 10:17:02;;;;;;;9.98;4.20;;;;;;;17.06;65.16;93389.44;2054435;69;20582;-78
2022/10/26 10:19:30;;;;;;;8.23;3.15;;;;;;;18.37;60.47;93390.38;2054965;69;20228;-77
2022/10/26 10:21:59;;;;;;;8.52;2.95;;;;;;;18.26;58.03;93384.25;2054838;69;20233;-78
2022/10/26 10:24:26;;;;;;;32.58;19.08;;;;;;;17.80;63.81;93394.31;2054970;69;20142;-74
2022/10/26 10:27:00;;;;;;;15.95;8.75;;;;;;;18.47;61.94;93388.72;2054917;69;20150;-75
2022/10/26 10:29:30;;;;;;;10.35;3.70;;;;;;;18.51;60.06;93385.31;2055000;69;20142;-76
2022/10/26 10:32:00;;;;;;;12.10;4.65;;;;;;;18.88;60.59;93381.13;2055076;69;20240;-76
2022/10/26 10:34:26;;;;;;;14.68;6.72;;;;;;;20.13;57.80;93387.38;2054967;69;20158;-77
2022/10/26 10:36:53;;;;;;;4.55;2.50;;;;;;;20.76;52.86;93383.16;2054918;69;20142;-76
2022/10/26 10:39:41;;;;;;;9.48;3.63;;;;;;;21.14;53.21;93392.28;2054991;69;20237;-77
2022/10/26 10:42:26;;;;;;;8.38;3.10;;;;;;;21.11;51.65;93390.03;2054988;69;20686;-79
2022/10/26 10:44:56;;;;;;;7.60;3.03;;;;;;;21.84;51.37;93383.72;2055027;69;20246;-78
2022/10/26 10:47:24;;;;;;;4.55;2.03;;;;;;;22.80;48.77;93386.41;2055049;69;20580;-78
2022/10/26 10:49:53;;;;;;;7.45;2.28;;;;;;;23.35;47.52;93382.06;2055840;69;20152;-78
2022/10/26 10:52:24;;;;;;;4.20;1.70;;;;;;;22.56;46.89;93383.63;2054702;69;20149;-80
2022/10/26 10:54:58;;;;;;;5.97;2.10;;;;;;;23.66;46.59;93383.53;2054971;69;20660;-78
2022/10/26 10:57:49;;;;;;;3.95;1.92;;;;;;;22.53;47.06;93377.09;2055217;69;20142;-79
2022/10/26 11:00:17;;;;;;;7.03;3.78;;;;;;;21.40;49.74;93365.94;2055116;69;20161;-78
2022/10/26 11:02:55;;;;;;;17.08;9.13;;;;;;;21.35;50.01;93367.19;2054236;69;20217;-77
2022/10/26 11:05:29;;;;;;;7.70;2.22;;;;;;;21.05;49.05;93379.09;2054151;69;20138;-78
2022/10/26 11:08:08;;;;;;;10.57;4.75;;;;;;;20.22;51.38;93374.84;2051029;70;20154;-76
2022/10/26 11:11:06;;;;;;;7.00;2.60;;;;;;;20.40;51.47;93365.47;2051201;70;20161;-77
2022/10/26 11:14:07;;;;;;;4.13;1.90;;;;;;;20.94;50.65;93360.16;2051552;70;20146;-78
2022/10/26 11:16:56;;;;;;;7.82;2.22;;;;;;;21.11;50.20;93362.13;2050091;70;20182;-77
2022/10/26 11:19:31;;;;;;;4.68;2.25;;;;;;;20.79;51.06;93368.25;2051214;69;20226;-77
2022/10/26 11:21:57;;;;;;;6.90;2.17;;;;;;;20.97;51.73;93364.53;2051480;70;20289;-78
2022/10/26 11:24:48;;;;;;;5.88;2.22;;;;;;;20.88;52.82;93352.09;2050817;70;20189;-76
2022/10/26 11:27:13;;;;;;;5.68;2.10;;;;;;;20.97;52.03;93358.81;2053600;69;20145;-78
2022/10/26 11:30:12;;;;;;;4.13;1.88;;;;;;;20.72;52.68;93363.72;2052204;70;20154;-77
2022/10/26 11:32:51;;;;;;;7.50;2.30;;;;;;;21.94;51.23;93357.50;2051530;69;20238;-77
2022/10/26 11:35:23;;;;;;;8.80;2.45;;;;;;;23.97;45.90;93364.09;2051566;70;20142;-78
2022/10/26 11:38:11;;;;;;;10.45;2.60;;;;;;;22.27;48.45;93368.53;2051389;70;20142;-77
2022/10/26 11:41:09;;;;;;;5.45;1.67;;;;;;;21.97;47.01;93368.34;2050909;69;20142;-79
2022/10/26 11:43:42;;;;;;;7.57;1.90;;;;;;;23.82;47.99;93368.78;2051426;69;20177;-79
2022/10/26 11:46:22;;;;;;;5.32;1.40;;;;;;;26.44;42.91;93377.69;2051616;70;20234;-78
2022/10/26 11:48:59;;;;;;;5.85;1.98;;;;;;;26.31;42.05;93371.00;2051368;70;20155;-81
2022/10/26 11:51:28;;;;;;;8.35;2.05;;;;;;;26.86;41.45;93365.16;2051384;70;20156;-77
2022/10/26 11:53:57;;;;;;;5.18;2.10;;;;;;;26.28;39.93;93374.56;2051329;70;20529;-77